Cruz Alta, Brazil
Current Conditions -  °F | °C
As of 12:00 AM on Sunday 26 Oct 2014 (Local Time) from SBSM Reporting Station
Clear Clear  
Wind Chill: 70°   Ceiling: Unl
Heat Index: 70°   Visibility: 6mi
Dew Point: 64°   Wind: 9mph
Humidity: 83%   Direction: 100°E
Pressure: 29.91"   Gusts: NA
Location:  28.64°S, 53.62°W
Report Text: SBSM 260200Z 10008KT CAVOK 21/18 Q1013
Loading
Personal Weather Stations






























Interactive Weather Map
Tropical Storm Tracking
New forecast layout! Learn more

10-Day Weather Forecast

Advertisements
Track Severe Weather on mobile